Neptune Antlia — S6BE — position and weather

sailwx.info

Track history (hours):
 
Tides and Currents Weather Stations Pressure Air Temp Water Temp Dewpoint Dewpoint Depression Visibility Wind Speed Wind Dir Waves Ship Positions

Neptune Antlia

Last reported at 2015-Mar-23 03:08 UTC. Time now 2015-Mar-29 12:29 UTC.
Position N 01°59' E 102°13'.

Type: Cargo ship. MMSI: 563737000.

Date/timePositionNaut miles runAvg speedWind from/ knotsBaromVisibWave heightAir tempDewpointWater temp
2015-Mar-23 03:08N 01°59' E 102°13'711.3
2015-Mar-23 02:32N 01°56' E 102°19'1111.3
2015-Mar-23 01:33N 01°51' E 102°29'1211.7
2015-Mar-23 00:33N 01°46' E 102°40'1513.3
2015-Mar-22 23:25N 01°40' E 102°54'4413.8
2015-Mar-22 20:15N 01°14' E 103°28'1112.2
2015-Mar-22 19:21N 01°12' E 103°39'810.5
2015-Mar-22 18:33N 01°10' E 103°47'1111.4
2015-Mar-22 17:33N 01°16' E 103°57'1 0.6
2015-Mar-22 16:19N 01°17' E 103°56'0 0.0
2015-Mar-22 15:33N 01°17' E 103°56'0 0.0
2015-Mar-22 14:32N 01°17' E 103°56'0 0.0
2015-Mar-22 13:33N 01°17' E 103°56'0 0.1
2015-Mar-22 12:33N 01°17' E 103°57'0 0.1
2015-Mar-22 11:33N 01°17' E 103°57'0 0.1
2015-Mar-22 10:33N 01°17' E 103°57'0 0.1
2015-Mar-22 09:33N 01°17' E 103°57'0 0.4
2015-Mar-22 08:33N 01°17' E 103°56'0 0.0
2015-Mar-22 07:27N 01°17' E 103°56'0 0.1
2015-Mar-22 06:33N 01°17' E 103°56'0 0.0
2015-Mar-22 05:33N 01°17' E 103°56'0 0.1
2015-Mar-22 04:33N 01°17' E 103°56'0 0.0
2015-Mar-22 03:29N 01°17' E 103°56'0 0.0
2015-Mar-22 02:33N 01°17' E 103°56'0 0.0
2015-Mar-22 01:32N 01°17' E 103°56'0 0.1
2015-Mar-22 00:33N 01°17' E 103°56'0 0.2
2015-Mar-21 23:29N 01°17' E 103°57'2 1.9
2015-Mar-21 22:33N 01°15' E 103°57'1010.0
2015-Mar-21 21:33N 01°16' E 104°07'  
2015-Mar-17 15:21N 19°31' E 115°36'22912.8
2015-Mar-16 21:25N 22°56' E 117°26'6211.9
2015-Mar-16 16:10N 23°42' E 118°12'813.4
2015-Mar-16 15:33N 23°45' E 118°21'49711.3
2015-Mar-14 19:32N 31°05' E 122°39'8 8.5
2015-Mar-14 18:33N 31°05' E 122°30'8 8.1
2015-Mar-14 17:33N 31°06' E 122°20'1010.1
2015-Mar-14 16:33N 31°11' E 122°10'1111.1
2015-Mar-14 15:33N 31°15' E 121°58'1313.0
2015-Mar-14 14:33N 31°19' E 121°43'1211.8
2015-Mar-14 13:33N 31°25' E 121°31'10 9.5
2015-Mar-14 12:33N 31°31' E 121°23'1111.1
2015-Mar-14 11:33N 31°39' E 121°13'1212.0
2015-Mar-14 10:33N 31°46' E 121°02'1211.2
2015-Mar-14 09:30N 31°55' E 120°53'1311.8
2015-Mar-14 08:26N 31°60' E 120°39'1011.4
2015-Mar-14 07:33N 32°00' E 120°27'10 9.5
2015-Mar-14 06:33N 31°57' E 120°17'1111.0
2015-Mar-14 05:32N 31°58' E 120°04'1413.8
2015-Mar-14 04:33N 32°08' E 119°54'  
Track history (hours):
 
Tides and Currents Weather Stations Pressure Air Temp Water Temp Dewpoint Dewpoint Depression Visibility Wind Speed Wind Dir Waves Ship Positions

Neptune Antlia

Last reported at 2015-Mar-23 03:08 UTC. Time now 2015-Mar-29 12:29 UTC.
Position N 01°59' E 102°13'.

Type: Cargo ship. MMSI: 563737000.

Date/timePositionNaut miles runAvg speedWind from/ knotsBaromVisibWave heightAir tempDewpointWater temp
2015-Mar-23 03:08N 01°59' E 102°13'711.3
2015-Mar-23 02:32N 01°56' E 102°19'1111.3
2015-Mar-23 01:33N 01°51' E 102°29'1211.7
2015-Mar-23 00:33N 01°46' E 102°40'1513.3
2015-Mar-22 23:25N 01°40' E 102°54'4413.8
2015-Mar-22 20:15N 01°14' E 103°28'1112.2
2015-Mar-22 19:21N 01°12' E 103°39'810.5
2015-Mar-22 18:33N 01°10' E 103°47'1111.4
2015-Mar-22 17:33N 01°16' E 103°57'1 0.6
2015-Mar-22 16:19N 01°17' E 103°56'0 0.0
2015-Mar-22 15:33N 01°17' E 103°56'0 0.0
2015-Mar-22 14:32N 01°17' E 103°56'0 0.0
2015-Mar-22 13:33N 01°17' E 103°56'0 0.1
2015-Mar-22 12:33N 01°17' E 103°57'0 0.1
2015-Mar-22 11:33N 01°17' E 103°57'0 0.1
2015-Mar-22 10:33N 01°17' E 103°57'0 0.1
2015-Mar-22 09:33N 01°17' E 103°57'0 0.4
2015-Mar-22 08:33N 01°17' E 103°56'0 0.0
2015-Mar-22 07:27N 01°17' E 103°56'0 0.1
2015-Mar-22 06:33N 01°17' E 103°56'0 0.0
2015-Mar-22 05:33N 01°17' E 103°56'0 0.1
2015-Mar-22 04:33N 01°17' E 103°56'0 0.0
2015-Mar-22 03:29N 01°17' E 103°56'0 0.0
2015-Mar-22 02:33N 01°17' E 103°56'0 0.0
2015-Mar-22 01:32N 01°17' E 103°56'0 0.1
2015-Mar-22 00:33N 01°17' E 103°56'0 0.2
2015-Mar-21 23:29N 01°17' E 103°57'2 1.9
2015-Mar-21 22:33N 01°15' E 103°57'1010.0
2015-Mar-21 21:33N 01°16' E 104°07'  
2015-Mar-17 15:21N 19°31' E 115°36'22912.8
2015-Mar-16 21:25N 22°56' E 117°26'6211.9
2015-Mar-16 16:10N 23°42' E 118°12'813.4
2015-Mar-16 15:33N 23°45' E 118°21'49711.3
2015-Mar-14 19:32N 31°05' E 122°39'8 8.5
2015-Mar-14 18:33N 31°05' E 122°30'8 8.1
2015-Mar-14 17:33N 31°06' E 122°20'1010.1
2015-Mar-14 16:33N 31°11' E 122°10'1111.1
2015-Mar-14 15:33N 31°15' E 121°58'1313.0
2015-Mar-14 14:33N 31°19' E 121°43'1211.8
2015-Mar-14 13:33N 31°25' E 121°31'10 9.5
2015-Mar-14 12:33N 31°31' E 121°23'1111.1
2015-Mar-14 11:33N 31°39' E 121°13'1212.0
2015-Mar-14 10:33N 31°46' E 121°02'1211.2
2015-Mar-14 09:30N 31°55' E 120°53'1311.8
2015-Mar-14 08:26N 31°60' E 120°39'1011.4
2015-Mar-14 07:33N 32°00' E 120°27'10 9.5
2015-Mar-14 06:33N 31°57' E 120°17'1111.0
2015-Mar-14 05:32N 31°58' E 120°04'1413.8
2015-Mar-14 04:33N 32°08' E 119°54'  

Dump ship's entire track history